Time;durP1;ratioP1;P1;durP2;ratioP2;P2;SDS_P1;SDS_P2;PMS_P1;PMS_P2;Temp;Humidity;BMP_temperature;BMP_pressure;BME280_temperature;BME280_humidity;BME280_pressure;Samples;Min_cycle;Max_cycle;Signal;HPM_P1;HPM_P2
2021/12/22 00:01:38;;;;;;;40.30;29.90;;;-3275.10;89.50;;;;;;5009278;28;20038;-77
2021/12/22 00:04:04;;;;;;;44.70;32.58;;;-3275.00;89.50;;;;;;5005803;28;20061;-78
2021/12/22 00:06:33;;;;;;;42.15;30.63;;;-3275.00;89.50;;;;;;5017837;28;20014;-78
2021/12/22 00:09:00;;;;;;;44.88;31.95;;;-3275.00;89.40;;;;;;5006063;28;20037;-76
2021/12/22 00:11:27;;;;;;;49.00;34.88;;;-3275.00;89.40;;;;;;5010738;28;20014;-76
2021/12/22 00:13:55;;;;;;;43.67;31.98;;;-3275.00;89.50;;;;;;5014599;28;20018;-79
2021/12/22 00:16:23;;;;;;;48.85;32.45;;;-3275.00;89.50;;;;;;5015802;28;20125;-77
2021/12/22 00:18:51;;;;;;;48.35;32.53;;;-3275.00;89.40;;;;;;5027887;28;20029;-78
2021/12/22 00:21:22;;;;;;;52.35;36.47;;;-3275.00;89.40;;;;;;5007421;28;20037;-79
2021/12/22 00:23:50;;;;;;;46.95;32.22;;;-3274.90;89.40;;;;;;5012755;28;20018;-74
2021/12/22 00:26:18;;;;;;;42.70;32.60;;;-3274.90;89.50;;;;;;5005229;28;20034;-78
2021/12/22 00:28:49;;;;;;;45.00;32.65;;;-3275.00;89.40;;;;;;5011923;28;20037;-79
2021/12/22 00:31:20;;;;;;;44.15;32.58;;;-3274.90;89.40;;;;;;5008054;28;20026;-76
2021/12/22 00:33:50;;;;;;;48.17;34.17;;;-3274.90;89.50;;;;;;5013823;28;20244;-75
2021/12/22 00:36:21;;;;;;;50.40;32.65;;;-3274.90;89.60;;;;;;5007471;28;20097;-76
2021/12/22 00:38:50;;;;;;;45.03;32.88;;;-3274.90;89.60;;;;;;5008924;28;20045;-76
2021/12/22 00:41:19;;;;;;;47.55;33.28;;;-3274.90;89.60;;;;;;5008092;28;20037;-76
2021/12/22 00:43:46;;;;;;;42.70;32.90;;;-3274.90;89.60;;;;;;5012592;28;20033;-75
2021/12/22 00:46:14;;;;;;;48.47;35.97;;;-3274.90;89.60;;;;;;5029888;28;20023;-72
2021/12/22 00:48:42;;;;;;;53.00;35.25;;;-3274.90;89.60;;;;;;5014840;28;20031;-77
2021/12/22 00:51:10;;;;;;;45.05;33.42;;;-3274.80;89.70;;;;;;5018612;28;20029;-76
2021/12/22 00:53:38;;;;;;;46.90;34.55;;;-3274.90;89.70;;;;;;5011401;28;20358;-77
2021/12/22 00:56:07;;;;;;;49.58;34.47;;;-3274.80;89.70;;;;;;5015197;28;20023;-77
2021/12/22 00:58:35;;;;;;;46.30;31.98;;;-3274.80;89.70;;;;;;5022712;28;20018;-78
2021/12/22 01:01:04;;;;;;;51.15;34.65;;;-3274.80;89.70;;;;;;5008514;28;20038;-79
2021/12/22 01:03:34;;;;;;;46.20;33.42;;;-3274.80;89.80;;;;;;5008263;28;20034;-75
2021/12/22 01:06:04;;;;;;;49.33;33.92;;;-3274.80;89.90;;;;;;5020077;28;20036;-75
2021/12/22 01:08:34;;;;;;;44.10;33.50;;;-3274.80;89.90;;;;;;5018248;28;20090;-77
2021/12/22 01:11:02;;;;;;;53.53;35.28;;;-3274.80;89.90;;;;;;5010298;28;20050;-74
2021/12/22 01:13:30;;;;;;;44.47;32.30;;;-3274.80;89.90;;;;;;5018103;28;20014;-78
2021/12/22 01:15:59;;;;;;;52.67;35.38;;;-3274.80;89.90;;;;;;5016987;28;20077;-78
2021/12/22 01:18:32;;;;;;;45.08;32.38;;;-3274.80;89.90;;;;;;5028125;28;20022;-79
2021/12/22 01:23:41;;;;;;;44.63;31.92;;;-3274.80;90.00;;;;;;5009903;28;20041;-78
2021/12/22 01:26:08;;;;;;;44.88;33.42;;;-3274.80;90.00;;;;;;5009847;28;20094;-77
2021/12/22 01:28:41;;;;;;;50.40;35.50;;;-3274.80;90.00;;;;;;5017085;28;20022;-79
2021/12/22 01:31:15;;;;;;;48.30;34.45;;;-3274.80;90.10;;;;;;5014671;28;20026;-78
2021/12/22 01:33:43;;;;;;;49.88;33.80;;;-3274.80;90.10;;;;;;5015633;28;20029;-79
2021/12/22 01:36:12;;;;;;;48.03;33.20;;;-3274.80;90.00;;;;;;5008872;28;20098;-79
2021/12/22 01:38:40;;;;;;;53.95;35.47;;;-3274.80;90.00;;;;;;4996824;28;20031;-78
2021/12/22 01:41:08;;;;;;;48.67;34.20;;;-3274.70;90.00;;;;;;5008928;28;20038;-77
2021/12/22 01:43:36;;;;;;;46.97;33.30;;;-3274.80;90.10;;;;;;5010513;28;20023;-79
2021/12/22 01:49:13;;;;;;;48.88;31.42;;;-3274.70;90.10;;;;;;5011740;28;20050;-78
2021/12/22 01:52:01;;;;;;;46.28;32.70;;;-3274.70;90.10;;;;;;5012755;28;20098;-79
2021/12/22 01:54:49;;;;;;;49.45;33.78;;;-3274.60;90.10;;;;;;5013884;28;20023;-75
2021/12/22 01:57:19;;;;;;;48.50;34.90;;;-3274.60;90.20;;;;;;5020575;28;20030;-79
2021/12/22 01:59:50;;;;;;;48.38;34.75;;;-3274.60;90.10;;;;;;5021635;28;20048;-77
2021/12/22 02:02:18;;;;;;;51.10;35.03;;;-3274.60;90.10;;;;;;5011673;28;20033;-73
2021/12/22 02:04:47;;;;;;;46.90;34.55;;;-3274.60;90.10;;;;;;5015398;28;20042;-79
2021/12/22 02:07:16;;;;;;;46.63;34.53;;;-3274.60;90.10;;;;;;5016803;28;20027;-78
2021/12/22 02:12:19;;;;;;;45.45;32.88;;;-3274.60;90.20;;;;;;5011932;28;20029;-78
2021/12/22 02:14:47;;;;;;;45.92;32.30;;;-3274.60;90.20;;;;;;5051046;28;20070;-77
2021/12/22 02:17:15;;;;;;;45.90;32.40;;;-3274.60;90.20;;;;;;5039284;28;20041;-79
2021/12/22 02:19:47;;;;;;;49.33;34.40;;;-3274.60;90.20;;;;;;5015707;28;20043;-78
2021/12/22 02:22:17;;;;;;;45.55;32.70;;;-3274.60;90.20;;;;;;5012410;28;20041;-79
2021/12/22 02:24:58;;;;;;;46.60;32.30;;;-3274.50;90.30;;;;;;5013388;28;20034;-79
2021/12/22 02:27:45;;;;;;;47.60;32.67;;;-3274.50;90.30;;;;;;5029128;28;20126;-77
2021/12/22 02:30:24;;;;;;;43.92;32.30;;;-3274.50;90.40;;;;;;5019887;28;20266;-78
2021/12/22 02:35:55;;;;;;;45.35;31.50;;;-3274.50;90.50;;;;;;5023169;28;20022;-78
2021/12/22 02:38:18;;;;;;;41.60;30.02;;;-3274.50;90.50;;;;;;5012761;28;20042;-73
2021/12/22 02:40:51;;;;;;;47.03;31.73;;;-3274.60;90.50;;;;;;5012069;28;20057;-78
2021/12/22 02:43:24;;;;;;;47.83;31.73;;;-3274.60;90.40;;;;;;5044795;28;20019;-77
2021/12/22 02:45:54;;;;;;;44.72;32.65;;;-3274.50;90.40;;;;;;5015818;28;20014;-78
2021/12/22 02:48:23;;;;;;;46.50;31.40;;;-3274.50;90.30;;;;;;5022777;28;20023;-76
2021/12/22 02:50:54;;;;;;;41.33;30.95;;;-3274.50;90.30;;;;;;5016802;28;20024;-76
2021/12/22 02:53:27;;;;;;;43.60;32.05;;;-3274.50;90.30;;;;;;5014334;28;20086;-77
2021/12/22 02:56:04;;;;;;;45.05;31.10;;;-3274.40;90.20;;;;;;5023272;28;20074;-77
2021/12/22 02:58:43;;;;;;;46.00;30.75;;;-3274.40;90.20;;;;;;5020375;28;20018;-76
2021/12/22 03:01:26;;;;;;;45.42;32.35;;;-3274.40;90.30;;;;;;5003181;28;20030;-77
2021/12/22 03:04:06;;;;;;;44.17;30.25;;;-3274.40;90.30;;;;;;5027261;28;20023;-78
2021/12/22 03:06:39;;;;;;;44.28;29.90;;;-3274.40;90.30;;;;;;5012556;28;20022;-77
2021/12/22 03:09:23;;;;;;;42.30;32.28;;;-3274.40;90.30;;;;;;5011194;28;20022;-76
2021/12/22 03:11:52;;;;;;;42.22;30.38;;;-3274.40;90.20;;;;;;5018127;28;20082;-77
2021/12/22 03:14:21;;;;;;;37.85;30.40;;;-3274.40;90.20;;;;;;5025640;28;20046;-76
2021/12/22 03:16:51;;;;;;;48.00;32.17;;;-3274.30;90.10;;;;;;5016273;28;20281;-78
2021/12/22 03:19:22;;;;;;;44.45;30.77;;;-3274.30;90.10;;;;;;5017745;28;20026;-77
2021/12/22 03:21:59;;;;;;;40.70;30.75;;;-3274.30;90.00;;;;;;5030122;28;20055;-75
2021/12/22 03:24:28;;;;;;;40.45;29.65;;;-3274.20;90.00;;;;;;5011477;28;20037;-76
2021/12/22 03:27:02;;;;;;;45.72;31.20;;;-3274.20;89.90;;;;;;5013847;28;20228;-75
2021/12/22 03:29:31;;;;;;;41.65;31.20;;;-3274.30;89.90;;;;;;5020497;28;20098;-76
2021/12/22 03:31:56;;;;;;;43.97;31.20;;;-3274.30;89.90;;;;;;5011155;28;20029;-76
2021/12/22 03:34:22;;;;;;;42.88;31.67;;;-3274.30;89.80;;;;;;5032310;28;20042;-77
2021/12/22 03:36:48;;;;;;;41.90;30.48;;;-3274.30;89.80;;;;;;5019888;28;20033;-73
2021/12/22 03:39:14;;;;;;;45.42;31.63;;;-3274.30;89.80;;;;;;5011566;28;20286;-76
2021/12/22 03:41:41;;;;;;;49.60;32.75;;;-3274.20;89.70;;;;;;5014274;28;20034;-77
2021/12/22 03:44:08;;;;;;;44.95;30.02;;;-3274.20;89.70;;;;;;5012822;28;20022;-77
2021/12/22 03:46:34;;;;;;;42.63;31.58;;;-3274.20;89.70;;;;;;5015654;28;20060;-78
2021/12/22 03:49:00;;;;;;;45.22;31.08;;;-3274.10;89.70;;;;;;5016929;28;20033;-77
2021/12/22 03:51:27;;;;;;;42.72;31.85;;;-3274.10;89.70;;;;;;5010789;28;20050;-78
2021/12/22 03:53:52;;;;;;;42.22;29.70;;;-3274.10;89.60;;;;;;5020653;28;20039;-77
2021/12/22 03:56:18;;;;;;;45.38;32.17;;;-3274.10;89.70;;;;;;5010016;28;20023;-77
2021/12/22 03:58:44;;;;;;;43.42;31.08;;;-3274.10;89.80;;;;;;5030016;28;20030;-78
2021/12/22 04:01:10;;;;;;;49.47;33.08;;;-3274.00;89.70;;;;;;5010829;28;20037;-73
2021/12/22 04:03:37;;;;;;;44.38;29.27;;;-3274.00;89.80;;;;;;5017349;28;20071;-76
2021/12/22 04:06:04;;;;;;;42.30;30.85;;;-3274.00;89.80;;;;;;5010600;28;20045;-77
2021/12/22 04:08:30;;;;;;;41.22;32.47;;;-3274.00;89.90;;;;;;5011038;28;20029;-78
2021/12/22 04:10:55;;;;;;;42.28;31.17;;;-3274.00;89.90;;;;;;5019646;28;20023;-77
2021/12/22 04:13:21;;;;;;;41.38;30.33;;;-3274.00;89.90;;;;;;5020372;28;20045;-75
2021/12/22 04:15:47;;;;;;;44.00;29.67;;;-3274.00;90.00;;;;;;5019018;28;20053;-78
2021/12/22 04:18:14;;;;;;;43.88;31.17;;;-3274.00;90.10;;;;;;5010636;28;20026;-78
2021/12/22 04:20:40;;;;;;;46.97;31.80;;;-3274.00;90.10;;;;;;5010805;28;20267;-78
2021/12/22 04:23:06;;;;;;;44.30;32.17;;;-3274.00;90.10;;;;;;5020257;28;20026;-77
2021/12/22 04:25:33;;;;;;;45.22;31.33;;;-3274.00;90.10;;;;;;5017073;28;20073;-76
2021/12/22 04:28:07;;;;;;;44.50;30.40;;;-3274.00;90.20;;;;;;5012828;28;20022;-77
2021/12/22 04:30:38;;;;;;;41.38;28.90;;;-3274.00;90.20;;;;;;5014466;28;20038;-75
2021/12/22 04:33:04;;;;;;;49.55;31.60;;;-3274.00;90.10;;;;;;5007953;28;20466;-75
2021/12/22 04:35:30;;;;;;;47.65;31.23;;;-3274.00;90.20;;;;;;5010072;28;20036;-76
2021/12/22 04:37:56;;;;;;;42.67;30.08;;;-3274.00;90.20;;;;;;5016068;28;20034;-75
2021/12/22 04:40:22;;;;;;;43.53;31.10;;;-3274.00;90.20;;;;;;5024176;28;20022;-76
2021/12/22 04:42:47;;;;;;;51.00;34.63;;;-3274.00;90.20;;;;;;5035433;28;20035;-76
2021/12/22 04:45:14;;;;;;;45.38;31.95;;;-3274.00;90.10;;;;;;5015147;28;20052;-75
2021/12/22 04:47:42;;;;;;;50.95;36.42;;;-3274.00;90.10;;;;;;5009679;28;20625;-77
2021/12/22 04:50:17;;;;;;;50.83;35.83;;;-3274.00;90.10;;;;;;5018251;28;20014;-77
2021/12/22 04:52:54;;;;;;;48.85;31.13;;;-3274.00;90.10;;;;;;5021075;28;20014;-78
2021/12/22 04:55:20;;;;;;;41.83;30.23;;;-3274.00;90.10;;;;;;5010076;28;20037;-77
2021/12/22 04:57:46;;;;;;;41.65;29.00;;;-3273.90;90.10;;;;;;5019620;28;20027;-77
2021/12/22 05:00:14;;;;;;;41.13;29.27;;;-3273.90;90.10;;;;;;5009594;28;20062;-76
2021/12/22 05:02:40;;;;;;;44.17;31.33;;;-3273.90;90.10;;;;;;5026671;28;20053;-76
2021/12/22 05:05:06;;;;;;;42.95;28.90;;;-3273.90;90.10;;;;;;5028070;28;20310;-76
2021/12/22 05:07:32;;;;;;;40.03;27.83;;;-3273.90;90.10;;;;;;5012904;28;20022;-78
2021/12/22 05:09:58;;;;;;;38.88;27.45;;;-3273.90;90.10;;;;;;5011927;28;20037;-78
2021/12/22 05:12:23;;;;;;;36.72;26.17;;;-3273.90;90.10;;;;;;5023163;28;20018;-76
2021/12/22 05:14:50;;;;;;;35.13;25.20;;;-3273.90;90.20;;;;;;5030202;28;20079;-76
2021/12/22 05:17:49;;;;;;;38.38;26.88;;;-3274.00;90.20;;;;;;5009627;28;20019;-76
2021/12/22 05:20:12;;;;;;;;;;;-3274.00;90.30;;;;;;5017264;28;20094;-77
2021/12/22 05:22:39;;;;;;;36.75;22.95;;;-3274.10;90.20;;;;;;5016378;28;19973;-73
2021/12/22 05:25:07;;;;;;;37.90;23.85;;;-3274.10;90.20;;;;;;5012441;28;20038;-77
2021/12/22 05:27:32;;;;;;;39.13;24.58;;;-3274.10;90.10;;;;;;5018334;28;20046;-77
2021/12/22 05:29:59;;;;;;;35.65;24.90;;;-3274.10;90.10;;;;;;5020316;28;20296;-77
2021/12/22 05:32:30;;;;;;;36.72;24.60;;;-3274.20;90.10;;;;;;5022298;28;20022;-74
2021/12/22 05:34:57;;;;;;;37.22;25.38;;;-3274.10;90.10;;;;;;5025152;28;20018;-78
2021/12/22 05:37:23;;;;;;;39.28;24.75;;;-3274.00;90.00;;;;;;5013983;28;20030;-75
2021/12/22 05:39:49;;;;;;;32.05;24.38;;;-3274.00;90.00;;;;;;5010301;28;20030;-77
2021/12/22 05:42:14;;;;;;;33.30;22.98;;;-3274.00;90.00;;;;;;5018809;28;20042;-78
2021/12/22 05:44:41;;;;;;;35.90;25.60;;;-3274.00;89.90;;;;;;5022114;28;20022;-77
2021/12/22 05:47:09;;;;;;;37.00;24.70;;;-3273.90;89.90;;;;;;5013243;28;20098;-77
2021/12/22 05:49:36;;;;;;;38.00;26.05;;;-3273.90;89.90;;;;;;5030365;28;20105;-76
2021/12/22 05:52:02;;;;;;;36.38;26.35;;;-3273.90;89.90;;;;;;5032404;28;20082;-76
2021/12/22 05:54:28;;;;;;;34.17;24.63;;;-3273.90;90.00;;;;;;5014896;28;20017;-77
2021/12/22 05:56:54;;;;;;;36.33;25.60;;;-3273.90;90.00;;;;;;5015337;28;20057;-73
2021/12/22 05:59:19;;;;;;;38.35;25.85;;;-3273.90;89.90;;;;;;5017481;28;20038;-78
2021/12/22 06:01:45;;;;;;;35.88;24.80;;;-3273.90;90.00;;;;;;5030322;28;20048;-76
2021/12/22 06:04:11;;;;;;;35.78;25.42;;;-3273.90;90.00;;;;;;5020226;28;20042;-76
2021/12/22 06:06:36;;;;;;;35.97;26.38;;;-3273.90;90.10;;;;;;5016356;28;20018;-77
2021/12/22 06:09:02;;;;;;;36.63;24.83;;;-3273.90;90.10;;;;;;5028279;28;20033;-75
2021/12/22 06:11:28;;;;;;;35.40;24.20;;;-3273.90;90.00;;;;;;5033145;28;20061;-78
2021/12/22 06:13:55;;;;;;;36.33;24.52;;;-3273.90;90.00;;;;;;5027142;28;20125;-75
2021/12/22 06:16:22;;;;;;;34.40;25.65;;;-3273.90;90.00;;;;;;5013034;28;20030;-78
2021/12/22 06:18:54;;;;;;;39.25;27.33;;;-3273.90;90.10;;;;;;5031521;28;20066;-77
2021/12/22 06:21:20;;;;;;;41.47;26.05;;;-3273.80;90.10;;;;;;5022058;28;20030;-77
2021/12/22 06:23:46;;;;;;;38.78;27.80;;;-3273.80;90.10;;;;;;5023346;28;20022;-78
2021/12/22 06:26:13;;;;;;;35.05;25.55;;;-3273.80;90.10;;;;;;5025328;28;20065;-78
2021/12/22 06:28:39;;;;;;;38.60;26.52;;;-3273.80;90.10;;;;;;5014747;28;20098;-77
2021/12/22 06:31:05;;;;;;;38.13;26.10;;;-3273.80;90.10;;;;;;5018420;28;20043;-78
2021/12/22 06:33:30;;;;;;;37.65;26.20;;;-3273.80;90.20;;;;;;5018872;28;20030;-78
2021/12/22 06:35:56;;;;;;;39.47;25.38;;;-3273.80;90.20;;;;;;5013121;28;21102;-77
2021/12/22 06:38:22;;;;;;;33.05;25.73;;;-3273.80;90.10;;;;;;5015994;28;20060;-77
2021/12/22 06:40:48;;;;;;;37.45;25.52;;;-3273.70;90.10;;;;;;5019983;28;20030;-77
2021/12/22 06:43:16;;;;;;;39.05;26.13;;;-3273.80;90.10;;;;;;5029302;28;20104;-76
2021/12/22 06:45:41;;;;;;;36.60;25.27;;;-3273.80;90.10;;;;;;5011901;28;20035;-77
2021/12/22 06:48:07;;;;;;;35.50;24.85;;;-3273.80;90.20;;;;;;5010796;28;20025;-76
2021/12/22 06:50:33;;;;;;;34.25;25.50;;;-3273.80;90.20;;;;;;5025527;28;20037;-78
2021/12/22 06:52:58;;;;;;;37.88;25.63;;;-3273.80;90.10;;;;;;5011496;28;20018;-76
2021/12/22 06:55:25;;;;;;;35.80;25.42;;;-3273.80;90.10;;;;;;5018631;28;20030;-76
2021/12/22 06:57:51;;;;;;;34.92;25.30;;;-3273.80;90.10;;;;;;5018580;28;20023;-78
2021/12/22 07:00:16;;;;;;;37.40;24.63;;;-3273.80;90.10;;;;;;5021511;28;20363;-77
2021/12/22 07:02:42;;;;;;;38.95;25.77;;;-3273.80;90.10;;;;;;5016519;28;20037;-77
2021/12/22 07:05:11;;;;;;;37.85;24.95;;;-3273.80;90.10;;;;;;5012280;28;20030;-75
2021/12/22 07:07:37;;;;;;;38.38;26.75;;;-3273.80;90.10;;;;;;5010567;28;20102;-78
2021/12/22 07:10:07;;;;;;;40.17;26.00;;;-3273.80;90.00;;;;;;5022463;28;20029;-76
2021/12/22 07:12:34;;;;;;;37.95;26.17;;;-3273.80;90.00;;;;;;5022015;28;20038;-76
2021/12/22 07:14:59;;;;;;;35.88;25.67;;;-3273.90;90.10;;;;;;5004810;28;20045;-78
2021/12/22 07:17:25;;;;;;;38.38;25.38;;;-3273.80;90.00;;;;;;5003075;28;20026;-78
2021/12/22 07:19:51;;;;;;;38.38;27.00;;;-3273.80;90.00;;;;;;5016738;28;20054;-77
2021/12/22 07:22:17;;;;;;;49.53;33.60;;;-3273.80;90.00;;;;;;5001876;28;20085;-76
2021/12/22 07:24:42;;;;;;;48.15;33.00;;;-3273.90;90.00;;;;;;5005049;28;20073;-78
2021/12/22 07:27:08;;;;;;;49.28;31.60;;;-3273.90;90.10;;;;;;5002787;28;20041;-76
2021/12/22 07:29:37;;;;;;;44.88;30.15;;;-3273.80;90.10;;;;;;5003496;28;20065;-78
2021/12/22 07:32:04;;;;;;;40.17;28.40;;;-3273.80;90.10;;;;;;5008107;28;20022;-75
2021/12/22 07:34:47;;;;;;;44.17;28.80;;;-3273.80;90.10;;;;;;5004048;28;20034;-77
2021/12/22 07:37:26;;;;;;;42.15;27.52;;;-3273.90;90.10;;;;;;5004156;28;20070;-74
2021/12/22 07:39:52;;;;;;;42.03;28.00;;;-3273.90;90.20;;;;;;5002765;28;20228;-74
2021/12/22 07:42:17;;;;;;;38.40;27.35;;;-3273.90;90.10;;;;;;5003910;28;20288;-74
2021/12/22 07:44:43;;;;;;;43.08;27.40;;;-3273.90;90.10;;;;;;5005454;28;20049;-73
2021/12/22 07:47:09;;;;;;;39.58;27.23;;;-3274.00;90.10;;;;;;5000555;28;20086;-74
2021/12/22 07:49:34;;;;;;;41.13;27.50;;;-3273.90;90.00;;;;;;5006537;28;20045;-74
2021/12/22 07:52:00;;;;;;;43.38;27.73;;;-3274.00;90.00;;;;;;5004529;28;20023;-75
2021/12/22 07:54:26;;;;;;;47.65;28.95;;;-3273.90;89.90;;;;;;5008475;28;20091;-69
2021/12/22 07:56:51;;;;;;;45.80;28.02;;;-3273.80;89.70;;;;;;5017702;28;20039;-75
2021/12/22 07:59:17;;;;;;;47.28;30.20;;;-3273.80;89.70;;;;;;5004735;28;20037;-72
2021/12/22 08:01:43;;;;;;;44.63;30.13;;;-3273.90;89.70;;;;;;5010343;28;20048;-73
2021/12/22 08:04:08;;;;;;;44.20;30.52;;;-3273.90;89.70;;;;;;4999301;28;20019;-74
2021/12/22 08:06:34;;;;;;;46.60;33.38;;;-3273.90;89.70;;;;;;5006756;28;20026;-73
2021/12/22 08:09:00;;;;;;;44.20;30.20;;;-3273.90;89.60;;;;;;5002968;28;20033;-73
2021/12/22 08:11:26;;;;;;;45.83;30.77;;;-3273.90;89.60;;;;;;5005257;28;20031;-71
2021/12/22 08:13:51;;;;;;;50.70;30.67;;;-3273.90;89.60;;;;;;4997556;28;20030;-73
2021/12/22 08:16:17;;;;;;;61.53;37.78;;;-3274.00;89.60;;;;;;5003063;28;20057;-74
2021/12/22 08:18:43;;;;;;;58.08;35.17;;;-3274.00;89.60;;;;;;5004236;28;20022;-74
2021/12/22 08:21:08;;;;;;;48.60;32.03;;;-3274.00;89.50;;;;;;5003070;28;20046;-74
2021/12/22 08:23:34;;;;;;;54.10;33.88;;;-3274.00;89.50;;;;;;5000165;28;20026;-74
2021/12/22 08:26:00;;;;;;;88.47;44.80;;;-3274.00;89.50;;;;;;5004468;28;20018;-69
2021/12/22 08:28:25;;;;;;;58.60;32.95;;;-3274.10;89.50;;;;;;5008857;28;21495;-72
2021/12/22 08:30:51;;;;;;;41.40;26.52;;;-3274.20;89.50;;;;;;5004211;28;20025;-73
2021/12/22 08:33:26;;;;;;;34.00;23.83;;;-3274.20;89.50;;;;;;4998664;28;20018;-73
2021/12/22 08:38:58;;;;;;;40.78;24.75;;;-3274.40;89.40;;;;;;4999655;28;20049;-72
2021/12/22 08:41:25;;;;;;;;;;;-3274.50;89.40;;;;;;5003855;28;20031;-73
2021/12/22 08:43:54;;;;;;;37.88;26.10;;;-3274.60;89.30;;;;;;5020764;28;19929;-73
2021/12/22 08:46:20;;;;;;;38.97;27.15;;;-3274.80;89.30;;;;;;4999046;28;20041;-73
2021/12/22 08:48:46;;;;;;;41.92;26.88;;;-3274.90;89.20;;;;;;5004011;28;20023;-73
2021/12/22 08:51:12;;;;;;;39.80;27.77;;;-3275.00;89.10;;;;;;5003981;28;20019;-73
2021/12/22 08:53:38;;;;;;;38.45;26.60;;;-3275.30;89.10;;;;;;5003337;28;20018;-74
2021/12/22 08:56:04;;;;;;;39.42;27.45;;;-3275.40;88.90;;;;;;5004389;28;20045;-69
2021/12/22 08:58:30;;;;;;;39.50;25.75;;;-3275.60;88.50;;;;;;5014915;28;20104;-74
2021/12/22 09:00:56;;;;;;;35.72;23.45;;;-3275.70;88.10;;;;;;5008146;28;20137;-74
2021/12/22 09:03:21;;;;;;;35.28;25.00;;;-3275.80;87.60;;;;;;5000565;28;20041;-73
2021/12/22 09:05:47;;;;;;;34.28;24.17;;;-3276.00;87.20;;;;;;5002756;28;20045;-75
2021/12/22 09:08:13;;;;;;;35.92;24.77;;;-3276.00;86.90;;;;;;5005390;28;20046;-74
2021/12/22 09:10:38;;;;;;;32.50;22.73;;;-3276.20;86.70;;;;;;5003308;28;20026;-74
2021/12/22 09:13:04;;;;;;;33.38;22.90;;;-3276.30;86.80;;;;;;5006244;28;20038;-73
2021/12/22 09:15:30;;;;;;;31.42;22.08;;;-3276.40;86.50;;;;;;5005524;28;20050;-73
2021/12/22 09:17:56;;;;;;;31.90;23.02;;;-3276.50;86.30;;;;;;5009303;28;20026;-73
2021/12/22 09:20:22;;;;;;;29.70;20.67;;;-3276.60;85.70;;;;;;5005973;28;20084;-73
2021/12/22 09:22:47;;;;;;;33.60;22.65;;;-3276.70;85.70;;;;;;5028840;28;20045;-73
2021/12/22 09:25:13;;;;;;;31.17;22.35;;;0.00;85.40;;;;;;5001527;28;20026;-74
2021/12/22 09:27:39;;;;;;;30.60;20.92;;;0.00;85.50;;;;;;5008503;28;20036;-72
2021/12/22 09:30:07;;;;;;;28.83;20.38;;;0.00;85.20;;;;;;5003875;28;20035;-73
2021/12/22 09:32:33;;;;;;;31.42;20.63;;;0.10;84.70;;;;;;4999430;28;20022;-72
2021/12/22 09:34:58;;;;;;;38.72;23.92;;;0.20;84.80;;;;;;4996094;28;20049;-73
2021/12/22 09:37:24;;;;;;;34.05;21.48;;;0.40;85.20;;;;;;5000521;28;20015;-75
2021/12/22 09:39:49;;;;;;;35.35;21.65;;;0.50;84.40;;;;;;5004308;28;20027;-69
2021/12/22 09:42:16;;;;;;;31.52;20.33;;;0.50;83.70;;;;;;5003608;28;20062;-72
2021/12/22 09:44:46;;;;;;;29.90;19.80;;;0.60;83.70;;;;;;5004756;28;20019;-73
2021/12/22 09:47:15;;;;;;;31.25;19.67;;;0.70;83.50;;;;;;5003468;28;20045;-74
2021/12/22 09:52:19;;;;;;;31.17;17.55;;;0.90;83.50;;;;;;5004465;28;20100;-76
2021/12/22 09:54:53;;;;;;;26.90;17.67;;;0.90;82.90;;;;;;5004725;28;20049;-75
2021/12/22 09:57:20;;;;;;;22.83;16.17;;;0.90;82.40;;;;;;5011809;28;20022;-73
2021/12/22 09:59:48;;;;;;;23.42;16.08;;;1.00;82.90;;;;;;5005151;28;20054;-74
2021/12/22 10:02:15;;;;;;;25.08;15.23;;;1.00;82.20;;;;;;5012113;28;20037;-71
2021/12/22 10:04:41;;;;;;;27.02;15.65;;;1.00;82.00;;;;;;5003801;28;20022;-73
2021/12/22 10:07:08;;;;;;;25.15;15.40;;;1.10;81.60;;;;;;5006365;28;20053;-73
2021/12/22 10:09:43;;;;;;;24.00;14.43;;;1.10;81.20;;;;;;5008676;28;20228;-73
2021/12/22 10:12:23;;;;;;;27.83;16.25;;;1.10;80.60;;;;;;5010932;28;20049;-69
2021/12/22 10:14:56;;;;;;;24.65;16.00;;;1.30;80.40;;;;;;4996820;28;20062;-73
2021/12/22 10:17:38;;;;;;;25.35;16.42;;;1.40;80.10;;;;;;5004580;28;20038;-74
2021/12/22 10:20:16;;;;;;;26.70;16.85;;;1.50;79.70;;;;;;5004608;28;20038;-74
2021/12/22 10:22:50;;;;;;;38.05;16.92;;;1.60;79.50;;;;;;5007528;28;20369;-74
2021/12/22 10:25:20;;;;;;;27.90;15.75;;;1.60;78.40;;;;;;5005819;28;20439;-74
2021/12/22 10:28:00;;;;;;;23.02;16.00;;;1.70;78.40;;;;;;5008903;28;20022;-74
2021/12/22 10:30:34;;;;;;;26.55;16.85;;;1.80;78.20;;;;;;5000590;28;20097;-73
2021/12/22 10:33:08;;;;;;;23.73;16.40;;;1.80;77.90;;;;;;5000879;28;20019;-75
2021/12/22 10:35:35;;;;;;;24.95;17.05;;;1.90;78.20;;;;;;4995210;28;20034;-73
2021/12/22 10:38:02;;;;;;;28.33;16.40;;;2.10;77.60;;;;;;5004298;28;20227;-72
2021/12/22 10:40:32;;;;;;;24.42;16.13;;;2.20;76.50;;;;;;5006576;28;20046;-72
2021/12/22 10:42:59;;;;;;;24.27;15.70;;;2.20;76.00;;;;;;5006608;28;20018;-72
2021/12/22 10:45:26;;;;;;;22.58;15.65;;;2.20;75.30;;;;;;5017705;28;20038;-71
2021/12/22 10:50:43;;;;;;;24.95;16.17;;;2.20;75.50;;;;;;5014948;28;20050;-74
2021/12/22 10:53:12;;;;;;;23.20;16.58;;;2.20;75.90;;;;;;5011177;28;20098;-76
2021/12/22 10:55:45;;;;;;;25.05;16.27;;;2.30;75.10;;;;;;5001655;28;20027;-76
2021/12/22 10:58:40;;;;;;;23.15;15.35;;;2.20;75.10;;;;;;5011735;28;20042;-74
2021/12/22 11:01:17;;;;;;;23.65;15.68;;;2.30;75.10;;;;;;5007009;28;20130;-72
2021/12/22 11:03:49;;;;;;;23.88;15.75;;;2.40;74.70;;;;;;5005827;28;20041;-71
2021/12/22 11:06:28;;;;;;;24.92;16.20;;;2.40;74.20;;;;;;5006241;28;20030;-73
2021/12/22 11:08:59;;;;;;;22.42;16.20;;;2.60;74.10;;;;;;5006181;28;20077;-73
2021/12/22 11:11:31;;;;;;;23.58;15.48;;;2.60;73.80;;;;;;5005103;28;20042;-73
2021/12/22 11:14:08;;;;;;;26.63;15.32;;;2.50;73.50;;;;;;5008266;28;20022;-72
2021/12/22 11:17:09;;;;;;;22.02;15.90;;;2.40;73.80;;;;;;5008511;28;20049;-73
2021/12/22 11:19:38;;;;;;;23.38;15.35;;;2.40;74.00;;;;;;5007476;28;20053;-74
2021/12/22 11:24:38;;;;;;;22.98;15.80;;;2.60;73.10;;;;;;5004502;28;20035;-75
2021/12/22 11:27:04;;;;;;;24.55;15.98;;;2.60;72.60;;;;;;5000262;28;20023;-73
2021/12/22 11:29:33;;;;;;;24.52;16.02;;;2.70;73.10;;;;;;5030440;28;20026;-72
2021/12/22 11:32:01;;;;;;;24.15;15.98;;;2.80;72.40;;;;;;5006125;28;20018;-74
2021/12/22 11:34:29;;;;;;;23.52;15.35;;;2.80;71.50;;;;;;4999321;28;20037;-73
2021/12/22 11:36:56;;;;;;;23.95;16.75;;;2.80;71.30;;;;;;5001750;28;20098;-73
2021/12/22 11:39:22;;;;;;;22.77;15.80;;;2.90;71.90;;;;;;5004447;28;20031;-73
2021/12/22 11:41:57;;;;;;;25.02;15.95;;;2.90;71.40;;;;;;5000685;28;20164;-74
2021/12/22 11:44:24;;;;;;;;;;;2.90;71.10;;;;;;5016669;28;20228;-75
2021/12/22 11:46:56;;;;;;;22.02;14.60;;;2.80;70.70;;;;;;5009604;28;19925;-75
2021/12/22 11:49:23;;;;;;;26.33;16.42;;;2.80;71.40;;;;;;5006522;28;20041;-74
2021/12/22 11:51:49;;;;;;;24.05;17.33;;;2.80;71.40;;;;;;5016030;28;20026;-70
2021/12/22 11:54:25;;;;;;;23.25;16.00;;;2.70;71.60;;;;;;4997220;28;20042;-74
2021/12/22 11:56:53;;;;;;;25.52;16.63;;;2.80;71.80;;;;;;5007449;28;20072;-74
2021/12/22 11:59:39;;;;;;;22.27;15.38;;;2.80;71.30;;;;;;5010571;28;20014;-74
2021/12/22 12:02:19;;;;;;;24.83;17.13;;;2.80;70.90;;;;;;5002383;28;20106;-75
2021/12/22 12:04:48;;;;;;;24.40;16.58;;;3.00;71.50;;;;;;5002453;28;20046;-72
2021/12/22 12:07:52;;;;;;;26.20;17.50;;;3.00;71.00;;;;;;5000751;28;20037;-75
2021/12/22 12:10:33;;;;;;;23.60;17.30;;;3.10;71.40;;;;;;5009467;28;20042;-69
2021/12/22 12:13:05;;;;;;;24.20;15.75;;;3.10;71.20;;;;;;5009139;28;20041;-74
2021/12/22 12:21:38;;;;;;;25.73;16.17;;;3.20;71.00;;;;;;5006562;28;20041;-73
2021/12/22 12:22:07;;;;;;;22.10;15.93;;;3.20;71.20;;;;;;5011735;28;20085;-69
2021/12/22 12:24:55;;;;;;;25.92;17.08;;;3.10;70.40;;;;;;5008506;28;20026;-73
2021/12/22 12:27:43;;;;;;;26.38;17.02;;;3.10;70.70;;;;;;5007109;28;24898;-73
2021/12/22 12:30:25;;;;;;;23.10;16.58;;;3.10;71.50;;;;;;5007800;28;20046;-70
2021/12/22 12:32:52;;;;;;;23.50;16.40;;;3.10;71.60;;;;;;5002904;28;20039;-71
2021/12/22 12:38:07;;;;;;;26.30;17.65;;;3.10;72.20;;;;;;5012958;28;20113;-72
2021/12/22 12:40:57;;;;;;;24.13;16.85;;;3.10;71.40;;;;;;5006124;28;20037;-73
2021/12/22 12:43:45;;;;;;;25.73;17.77;;;2.90;71.50;;;;;;5006535;28;20044;-71
2021/12/22 12:46:29;;;;;;;25.67;16.77;;;2.90;72.10;;;;;;5020427;28;20118;-74
2021/12/22 12:49:03;;;;;;;25.20;17.90;;;2.90;72.30;;;;;;5018546;28;20030;-74